Perry Lefors Field

About
Name: Perry Lefors Field
Identifier:  PPA/KPPA
Local Time:  25. Aug 22:46 CDT
Location
Statistics
Flights per Day:
0 flights
Distance: 675km (419mi)
Flights delayed:
-100% (0 flights per day delayed)
Delay Average: 30 minutes
Current Weather
 28 C (Humidity: 54%)
  5kt (9km/h / 5mph) from 180°
  16km (10 mi.)
 
 METAR KPPA 251615Z AUTO 18005KT 10SM CLR 28/18 A2994 RMK AO2 T02840183

Current Delays

Departures
N/A
Arrivals
N/A

Destinations

Top Destinations
Airport Flights
per week
Seats
per week
  Dallas (DFW) 2 - 0 0
  Lubbock (LBB) 1 - 0 0
  Tyler (TYR) 1 - 0 0
  Clinton (CLK) 1 - 0 0
  Longview (GGG) 0 - 0 0
  College Station (CLL) 0 - 0 0
  Dallas (ADS) 0 - 0 0

Airlines & Planes

Top Airlines
Airline Flights
per Day
Seats
per Day
  Ameriflight 0 -
  National Airlines 0 -
  Nolinor Aviation 0 -
Top Plane Types
Model Flights Seats
Beech C-99 Airliner 0.9/day - 0
Cessna C560 0.0/day - 0